Dell City, TX

6:22 AM MDT on September 02, 2014 (GMT -0600)
APRSWXNET Salt Flat TX US | Change Station
CLOSE
Current Station
Personal Weather Station
Location: Salt Flat, TX
Elevation: 3681 ft
Nearby Weather Stations

Elev 3681 ft 31.84 °N, 104.96 °W | Updated 49 minutes ago

Clear
Clear
62 °F
Feels Like 62 °F
N
0
Wind Variable Wind from NE
Gusts 0.0 mph

Today
High -- | Low -- °F
--% Chance of Precip.
Yesterday
High -- | Low -- °F
Precip. -- in
6:36 AM 7:23 PM
Waxing Crescent, 51% visible
Pressure 29.83 in
Visibility 10.0 miles
Clouds Clear
Dew Point 41 °F
Humidity 46%
Rainfall 0.00 in
Snow Depth Not available.
UV 0 out of 12
Pollen 9.70 out of 12
Air Quality Not available.
Flu Activity Not available.
METAR KGDP 021151Z AUTO 21009KT 10SM CLR 22/04 A3012 RMK AO2 SLP100 T02220044 10256 20222 53007

More Conditions Fewer Conditions

Pressure 29.83 in
Visibility 10.0 miles
Clouds Clear
Dew Point 41 °F
Humidity 46%
Rainfall 0.00 in
Snow Depth Not available.
UV 0 out of 12
Pollen 9.70 out of 12
Air Quality Not available.
Flu Activity Not available.
METAR KGDP 021151Z AUTO 21009KT 10SM CLR 22/04 A3012 RMK AO2 SLP100 T02220044 10256 20222 53007

More Conditions Fewer Conditions

10-Day Weather Forecast

Almanac

Astronomy

Sep. 02, 2014 Rise Set
Actual Time 6:36 AM MDT 7:23 PM MDT
Civil Twilight 6:11 AM MDT 7:48 PM MDT
Nautical Twilight 5:42 AM MDT 8:17 PM MDT
Astronomical Twilight 5:12 AM MDT 8:47 PM MDT
Moon 1:58 PM MDT No Moon Set
Length of Visible Light 13h 36m
Length of Day
12h 46m
Tomorrow will be 1m 52s shorter.
Waxing Crescent, 51% of the Moon is Illuminated
Today
Waxing Crescent
Sep 8
Full
Sep 15
Last Quarter
Sep 24
New
Oct 1
First Quarter

Today's Extremes

State Highs State Lows

Community

WunderPhotos

Upload Photos

1,749,639 photos uploaded!

WunderBlogs® & News

By Dr. Jeff Masters
Director of Meteorology, Weather Underground
By Kari Strenfel
Meteorologist, Weather Underground
By Christopher C. Burt
Weather Historian, Weather Underground
September 2, 2014
September 2, 2014
September 2, 2014

Nearby

Snow Depth

Station Depth Elevation
No new snow has been reported.

Earthquake Activity

City Distance Mag. Time & Date
No recent earthquake activity has been reported nearby.
Minimum magnitude displayed is 2.5.

Coastal Water Temperatures

Place Temperature
No Stations Reporting

Nearby Weather Stations